Time;durP1;ratioP1;P1;durP2;ratioP2;P2;SDS_P1;SDS_P2;PMS_P1;PMS_P2;Temp;Humidity;BMP_temperature;BMP_pressure;BME280_temperature;BME280_humidity;BME280_pressure;Samples;Min_cycle;Max_cycle;Signal;HPM_P1;HPM_P2
2021/01/08 00:01:28;;;;;;;25.35;13.88;;;0.30;99.90;;;;;;4978859;28;20030;-87
2021/01/08 00:03:54;;;;;;;25.88;13.55;;;0.30;99.90;;;;;;4979199;28;20064;-88
2021/01/08 00:06:20;;;;;;;23.40;13.60;;;0.30;99.90;;;;;;4977982;28;20045;-88
2021/01/08 00:08:46;;;;;;;21.92;12.82;;;0.30;99.90;;;;;;4996120;28;20022;-87
2021/01/08 00:11:19;;;;;;;24.58;12.77;;;0.30;99.90;;;;;;4994642;28;20037;-87
2021/01/08 00:13:46;;;;;;;18.92;11.70;;;0.20;99.90;;;;;;4977882;28;20606;-87
2021/01/08 00:16:12;;;;;;;23.33;12.80;;;0.20;99.90;;;;;;4977782;28;20035;-88
2021/01/08 00:18:38;;;;;;;24.23;13.43;;;0.30;99.90;;;;;;4978649;28;20497;-88
2021/01/08 00:21:04;;;;;;;23.52;12.98;;;0.50;99.90;;;;;;4978048;28;20080;-88
2021/01/08 00:23:32;;;;;;;20.85;11.20;;;0.70;99.90;;;;;;4994296;28;20022;-88
2021/01/08 00:25:58;;;;;;;21.10;11.40;;;0.90;99.90;;;;;;4977766;28;20026;-88
2021/01/08 00:28:24;;;;;;;22.77;13.20;;;0.90;99.60;;;;;;4978025;28;20365;-88
2021/01/08 00:30:49;;;;;;;21.40;12.30;;;0.80;99.80;;;;;;4977989;28;20060;-87
2021/01/08 00:33:15;;;;;;;21.42;11.80;;;0.80;99.90;;;;;;4977916;28;20019;-88
2021/01/08 00:35:41;;;;;;;20.02;11.75;;;0.90;99.20;;;;;;4993819;28;20379;-87
2021/01/08 00:38:07;;;;;;;20.58;12.00;;;0.90;99.90;;;;;;4977874;28;20038;-88
2021/01/08 00:40:33;;;;;;;18.88;11.32;;;0.90;99.90;;;;;;4978150;28;20029;-86
2021/01/08 00:42:59;;;;;;;19.77;10.48;;;0.90;99.90;;;;;;4979670;28;20027;-87
2021/01/08 00:45:25;;;;;;;19.15;11.48;;;1.00;99.50;;;;;;4985215;28;20030;-87
2021/01/08 00:47:50;;;;;;;19.83;12.30;;;0.90;99.90;;;;;;4977744;28;20081;-88
2021/01/08 00:50:19;;;;;;;20.48;11.60;;;0.90;99.90;;;;;;4976597;28;20032;-88
2021/01/08 00:52:45;;;;;;;18.60;11.82;;;0.80;99.10;;;;;;4977527;28;20030;-88
2021/01/08 00:55:11;;;;;;;22.73;12.30;;;0.70;98.00;;;;;;4977146;28;20081;-88
2021/01/08 00:57:37;;;;;;;22.42;12.02;;;0.60;98.90;;;;;;4994149;28;20086;-88
2021/01/08 01:00:05;;;;;;;20.88;10.77;;;0.60;99.80;;;;;;4977922;28;20077;-88
2021/01/08 01:02:34;;;;;;;19.33;11.55;;;0.60;99.90;;;;;;4977733;28;20553;-87
2021/01/08 01:05:01;;;;;;;20.50;11.20;;;0.70;99.50;;;;;;4977331;28;20033;-88
2021/01/08 01:07:26;;;;;;;18.35;10.90;;;0.70;98.40;;;;;;4977724;28;20399;-88
2021/01/08 01:09:52;;;;;;;17.20;10.50;;;0.80;98.40;;;;;;4977663;28;20018;-88
2021/01/08 01:12:18;;;;;;;22.23;11.82;;;0.90;96.70;;;;;;4977501;28;20026;-86
2021/01/08 01:14:44;;;;;;;20.02;11.00;;;0.80;97.10;;;;;;4976103;28;20084;-88
2021/01/08 01:17:11;;;;;;;20.60;11.80;;;0.60;98.00;;;;;;4977318;28;20483;-87
2021/01/08 01:19:37;;;;;;;20.60;11.32;;;0.50;99.30;;;;;;4977556;28;20061;-86
2021/01/08 01:22:03;;;;;;;19.15;10.98;;;0.70;98.90;;;;;;4977367;28;20026;-88
2021/01/08 01:24:28;;;;;;;17.75;10.23;;;0.80;98.60;;;;;;4976674;28;20026;-88
2021/01/08 01:27:00;;;;;;;22.83;10.95;;;0.70;96.70;;;;;;4977070;28;20492;-88
2021/01/08 01:29:26;;;;;;;22.00;10.93;;;0.70;97.30;;;;;;4976984;28;20095;-88
2021/01/08 01:31:52;;;;;;;22.52;12.05;;;0.70;97.30;;;;;;4977060;28;20539;-87
2021/01/08 01:34:19;;;;;;;25.27;12.60;;;0.90;97.00;;;;;;4976498;28;20031;-88
2021/01/08 01:36:45;;;;;;;20.52;11.07;;;1.00;96.80;;;;;;4993544;28;20427;-87
2021/01/08 01:39:13;;;;;;;18.23;11.63;;;1.10;96.90;;;;;;4977122;28;20032;-88
2021/01/08 01:41:41;;;;;;;22.48;11.88;;;1.30;96.80;;;;;;4976699;28;20034;-87
2021/01/08 01:44:06;;;;;;;19.42;11.10;;;1.40;95.80;;;;;;4976515;28;20018;-87
2021/01/08 01:46:33;;;;;;;18.73;11.43;;;1.50;95.50;;;;;;4976919;28;20397;-88
2021/01/08 01:49:06;;;;;;;18.52;11.15;;;1.30;96.00;;;;;;4976919;28;20068;-87
2021/01/08 01:51:32;;;;;;;19.95;9.98;;;1.40;96.40;;;;;;4976643;28;20026;-88
2021/01/08 01:53:59;;;;;;;21.50;10.68;;;1.50;96.10;;;;;;4976473;28;20041;-88
2021/01/08 01:56:24;;;;;;;17.75;10.45;;;1.50;95.50;;;;;;4976121;28;20037;-87
2021/01/08 01:58:50;;;;;;;17.60;10.52;;;1.60;95.30;;;;;;4976481;28;20407;-88
2021/01/08 02:01:16;;;;;;;20.15;11.18;;;1.60;95.60;;;;;;4976097;28;20124;-88
2021/01/08 02:03:50;;;;;;;19.35;11.35;;;1.70;95.30;;;;;;4976482;28;20029;-88
2021/01/08 02:06:20;;;;;;;16.58;9.75;;;1.80;94.80;;;;;;4975956;28;20029;-88
2021/01/08 02:08:59;;;;;;;16.10;9.00;;;1.60;93.90;;;;;;4976697;28;20022;-88
2021/01/08 02:11:28;;;;;;;15.57;8.95;;;1.30;93.80;;;;;;4976284;28;20027;-88
2021/01/08 02:14:09;;;;;;;17.67;9.77;;;1.20;94.80;;;;;;4991506;28;20050;-88
2021/01/08 02:16:36;;;;;;;18.00;10.30;;;0.90;94.60;;;;;;4976073;28;20022;-87
2021/01/08 02:19:04;;;;;;;16.95;9.85;;;0.40;97.00;;;;;;4975949;28;20027;-87
2021/01/08 02:21:44;;;;;;;17.50;10.10;;;0.00;99.90;;;;;;4975185;28;20423;-87
2021/01/08 02:24:23;;;;;;;19.27;9.85;;;-0.20;99.90;;;;;;4975712;28;20022;-87
2021/01/08 02:26:50;;;;;;;20.23;10.48;;;-0.30;99.90;;;;;;4976088;28;20543;-87
2021/01/08 02:29:16;;;;;;;15.77;8.75;;;-0.20;99.90;;;;;;4976087;28;20169;-87
2021/01/08 02:31:45;;;;;;;17.13;10.68;;;-0.10;99.90;;;;;;4975670;28;20129;-88
2021/01/08 02:34:12;;;;;;;15.98;9.65;;;0.20;99.90;;;;;;4975555;28;20451;-86
2021/01/08 02:36:39;;;;;;;13.55;8.38;;;0.40;99.90;;;;;;4975703;28;20026;-87
2021/01/08 02:39:06;;;;;;;19.88;10.13;;;0.30;99.90;;;;;;4976153;28;20033;-87
2021/01/08 02:41:35;;;;;;;17.38;9.90;;;0.20;99.90;;;;;;4975600;28;20056;-88
2021/01/08 02:44:02;;;;;;;17.73;10.27;;;0.00;99.90;;;;;;4975586;28;20033;-89
2021/01/08 02:46:28;;;;;;;17.88;10.35;;;0.00;99.90;;;;;;4975673;28;20027;-87
2021/01/08 02:48:54;;;;;;;14.57;8.80;;;0.00;99.90;;;;;;4975941;28;20037;-87
2021/01/08 02:51:19;;;;;;;17.08;9.90;;;0.00;99.90;;;;;;4991909;28;20030;-88
2021/01/08 02:53:46;;;;;;;15.82;9.05;;;-0.10;99.90;;;;;;4975374;28;20372;-88
2021/01/08 02:56:16;;;;;;;15.38;9.43;;;-0.10;99.90;;;;;;4975250;28;20176;-88
2021/01/08 02:58:43;;;;;;;16.85;8.98;;;-0.10;99.90;;;;;;4975811;28;20030;-87
2021/01/08 03:01:11;;;;;;;15.50;8.60;;;-0.20;99.90;;;;;;4975342;28;20026;-88
2021/01/08 03:03:37;;;;;;;14.52;9.40;;;-0.20;99.90;;;;;;4975248;28;20023;-87
2021/01/08 03:06:03;;;;;;;15.35;8.77;;;-0.10;99.90;;;;;;4974853;28;20026;-87
2021/01/08 03:08:30;;;;;;;17.08;9.73;;;-0.20;99.90;;;;;;4991686;28;20081;-88
2021/01/08 03:10:57;;;;;;;13.27;8.48;;;-0.10;99.90;;;;;;4975492;28;20022;-88
2021/01/08 03:13:24;;;;;;;11.32;7.75;;;-0.10;99.90;;;;;;4990229;28;20538;-88
2021/01/08 03:15:50;;;;;;;14.65;9.00;;;-0.20;99.90;;;;;;4974685;28;20027;-87
2021/01/08 03:18:16;;;;;;;13.77;8.23;;;-0.20;99.90;;;;;;4991332;28;20022;-86
2021/01/08 03:20:41;;;;;;;14.45;7.93;;;-0.20;99.90;;;;;;4991056;28;20022;-87
2021/01/08 03:23:08;;;;;;;12.52;7.63;;;-0.10;99.90;;;;;;4975124;28;20090;-87
2021/01/08 03:25:34;;;;;;;15.18;8.82;;;0.10;99.90;;;;;;4974837;28;20337;-88
2021/01/08 03:28:00;;;;;;;13.48;9.48;;;0.00;99.90;;;;;;4975009;28;20084;-87
2021/01/08 03:30:25;;;;;;;17.10;9.32;;;-0.20;99.90;;;;;;4990798;28;20491;-88
2021/01/08 03:32:51;;;;;;;13.95;8.38;;;-0.30;99.90;;;;;;4975299;28;20034;-87
2021/01/08 03:35:17;;;;;;;17.60;10.13;;;-0.30;99.90;;;;;;4974511;28;20037;-87
2021/01/08 03:37:43;;;;;;;14.38;9.52;;;-0.30;99.90;;;;;;4991091;28;20026;-88
2021/01/08 03:40:09;;;;;;;16.92;9.52;;;-0.40;99.90;;;;;;4974722;28;20228;-87
2021/01/08 03:42:35;;;;;;;16.30;8.82;;;-0.40;99.90;;;;;;4991232;28;20023;-87
2021/01/08 03:45:01;;;;;;;16.00;9.88;;;-0.40;99.90;;;;;;4974591;28;20034;-87
2021/01/08 03:47:27;;;;;;;18.33;10.65;;;-0.30;99.90;;;;;;4990944;28;20538;-87
2021/01/08 03:49:53;;;;;;;14.80;9.40;;;-0.40;99.90;;;;;;4974778;28;20026;-87
2021/01/08 03:52:18;;;;;;;17.73;9.98;;;-0.40;99.90;;;;;;4974697;28;20466;-87
2021/01/08 03:54:44;;;;;;;22.80;9.90;;;-0.50;99.90;;;;;;4974526;28;20030;-87
2021/01/08 03:57:10;;;;;;;16.48;9.20;;;-0.40;99.90;;;;;;4974779;28;20550;-88
2021/01/08 03:59:35;;;;;;;18.75;11.00;;;-0.30;99.90;;;;;;4974956;28;20066;-87
2021/01/08 04:02:01;;;;;;;19.55;10.43;;;-0.30;99.90;;;;;;4974575;28;20022;-87
2021/01/08 04:04:27;;;;;;;22.85;11.27;;;-0.30;99.90;;;;;;4974249;28;20031;-87
2021/01/08 04:06:53;;;;;;;24.13;12.32;;;-0.30;99.90;;;;;;4974978;28;20107;-87
2021/01/08 04:09:19;;;;;;;20.20;11.80;;;-0.30;99.90;;;;;;4974669;28;20034;-87
2021/01/08 04:11:45;;;;;;;19.80;11.65;;;-0.30;99.90;;;;;;4974766;28;20506;-87
2021/01/08 04:14:11;;;;;;;19.92;12.95;;;-0.30;99.90;;;;;;4973313;28;20031;-88
2021/01/08 04:16:40;;;;;;;19.63;11.07;;;-0.30;99.90;;;;;;4974642;28;20026;-87
2021/01/08 04:19:10;;;;;;;22.95;13.15;;;-0.30;99.90;;;;;;4974882;28;20113;-89
2021/01/08 04:21:36;;;;;;;22.83;10.48;;;-0.30;99.90;;;;;;4974661;28;20061;-88
2021/01/08 04:24:03;;;;;;;19.25;10.98;;;-0.30;99.90;;;;;;4975585;28;20023;-88
2021/01/08 04:26:29;;;;;;;18.02;11.50;;;-0.30;99.90;;;;;;4994323;28;20076;-87
2021/01/08 04:28:55;;;;;;;18.48;10.65;;;-0.40;99.90;;;;;;4977983;28;20097;-87
2021/01/08 04:31:20;;;;;;;25.65;12.23;;;-0.50;99.90;;;;;;4994179;28;20022;-87
2021/01/08 04:33:46;;;;;;;20.38;11.48;;;-0.50;99.90;;;;;;4977993;28;20033;-87
2021/01/08 04:36:12;;;;;;;23.27;12.13;;;-0.50;99.90;;;;;;4993949;28;20487;-88
2021/01/08 04:38:39;;;;;;;23.77;13.32;;;-0.40;99.90;;;;;;4977930;28;20034;-87
2021/01/08 04:41:06;;;;;;;22.58;12.68;;;-0.40;99.90;;;;;;4977829;28;20037;-87
2021/01/08 04:43:32;;;;;;;20.67;11.93;;;-0.40;99.90;;;;;;4994448;28;20522;-87
2021/01/08 04:46:16;;;;;;;21.08;12.32;;;-0.40;99.90;;;;;;4977331;28;20073;-88
2021/01/08 04:48:42;;;;;;;22.52;12.20;;;-0.50;99.90;;;;;;4977816;28;20019;-88
2021/01/08 04:51:10;;;;;;;21.92;12.38;;;-0.40;99.90;;;;;;4977937;28;20076;-88
2021/01/08 04:53:37;;;;;;;22.77;12.57;;;-0.40;99.90;;;;;;4977638;28;20088;-87
2021/01/08 04:56:07;;;;;;;19.48;11.05;;;-0.40;99.90;;;;;;4993768;28;20037;-88
2021/01/08 04:58:33;;;;;;;21.50;12.45;;;-0.40;99.90;;;;;;4977696;28;20033;-87
2021/01/08 05:01:01;;;;;;;21.38;11.40;;;-0.40;99.90;;;;;;4977554;28;20406;-88
2021/01/08 05:03:30;;;;;;;21.38;11.32;;;-0.40;99.90;;;;;;4977438;28;20024;-86
2021/01/08 05:05:57;;;;;;;20.35;12.38;;;-0.40;99.90;;;;;;4992973;28;20058;-87
2021/01/08 05:08:23;;;;;;;21.95;12.63;;;-0.40;99.90;;;;;;4977302;28;20029;-87
2021/01/08 05:10:49;;;;;;;19.23;11.45;;;-0.40;99.90;;;;;;4977483;28;20030;-87
2021/01/08 05:13:15;;;;;;;21.83;12.95;;;-0.40;99.90;;;;;;4976916;28;20042;-87
2021/01/08 05:15:50;;;;;;;21.50;11.80;;;-0.30;99.90;;;;;;4975405;28;20030;-87
2021/01/08 05:18:16;;;;;;;24.95;12.63;;;-0.40;99.90;;;;;;4977154;28;20030;-87
2021/01/08 05:20:42;;;;;;;21.35;11.55;;;-0.40;99.90;;;;;;4977319;28;20164;-88
2021/01/08 05:23:10;;;;;;;19.90;11.95;;;-0.40;99.90;;;;;;4976900;28;20030;-86
2021/01/08 05:25:36;;;;;;;19.17;11.35;;;-0.40;99.90;;;;;;4992827;28;20022;-86
2021/01/08 05:28:04;;;;;;;19.08;11.15;;;-0.40;99.90;;;;;;4977603;28;20034;-86
2021/01/08 05:30:30;;;;;;;19.00;9.68;;;-0.40;99.90;;;;;;4977396;28;20022;-88
2021/01/08 05:32:57;;;;;;;18.92;10.68;;;-0.60;99.90;;;;;;4977440;28;20034;-87
2021/01/08 05:35:23;;;;;;;18.23;10.65;;;-0.60;99.90;;;;;;4976675;28;20037;-87
2021/01/08 05:37:52;;;;;;;18.00;9.48;;;-0.60;99.90;;;;;;4977576;28;20737;-86
2021/01/08 05:40:25;;;;;;;18.05;10.05;;;-0.60;99.90;;;;;;4977547;28;20026;-87
2021/01/08 05:43:01;;;;;;;18.23;10.98;;;-0.70;99.90;;;;;;4993699;28;20026;-87
2021/01/08 05:45:28;;;;;;;18.02;11.80;;;-0.60;99.90;;;;;;4976535;28;20026;-87
2021/01/08 05:47:56;;;;;;;21.20;11.40;;;-0.50;99.90;;;;;;4976866;28;20030;-86
2021/01/08 05:50:23;;;;;;;23.10;12.52;;;-0.50;99.90;;;;;;4976701;28;20488;-87
2021/01/08 05:53:09;;;;;;;23.42;12.63;;;-0.60;99.90;;;;;;4976429;28;20048;-87
2021/01/08 05:55:35;;;;;;;24.20;13.68;;;-0.50;99.90;;;;;;4976465;28;20022;-87
2021/01/08 05:58:17;;;;;;;22.02;12.55;;;-0.50;99.90;;;;;;4976536;28;20040;-86
2021/01/08 06:00:43;;;;;;;26.77;14.05;;;-0.50;99.90;;;;;;4976410;28;20562;-87
2021/01/08 06:03:10;;;;;;;23.30;12.88;;;-0.50;99.90;;;;;;4976226;28;20067;-87
2021/01/08 06:05:38;;;;;;;24.55;12.57;;;-0.50;99.90;;;;;;4992741;28;20018;-87
2021/01/08 06:08:05;;;;;;;23.27;13.35;;;-0.50;99.90;;;;;;4976250;28;20030;-86
2021/01/08 06:10:35;;;;;;;23.02;13.00;;;-0.40;99.90;;;;;;4976148;28;20022;-87
2021/01/08 06:13:02;;;;;;;23.58;13.48;;;-0.40;99.90;;;;;;4976312;28;20049;-87
2021/01/08 06:15:28;;;;;;;25.60;14.10;;;-0.40;99.90;;;;;;4974763;28;20117;-87
2021/01/08 06:17:54;;;;;;;26.45;13.30;;;-0.40;99.90;;;;;;4976798;28;20110;-87
2021/01/08 06:20:21;;;;;;;26.75;13.80;;;-0.50;99.90;;;;;;4975947;28;20494;-87
2021/01/08 06:22:46;;;;;;;24.67;14.57;;;-0.50;99.90;;;;;;4976215;28;20030;-87
2021/01/08 06:25:18;;;;;;;24.50;14.38;;;-0.50;99.90;;;;;;4976062;28;20085;-87
2021/01/08 06:27:46;;;;;;;23.83;13.30;;;-0.50;99.90;;;;;;4976364;28;20114;-88
2021/01/08 06:30:19;;;;;;;26.75;15.55;;;-0.50;99.90;;;;;;4975978;28;20026;-88
2021/01/08 06:32:47;;;;;;;24.55;13.75;;;-0.40;99.90;;;;;;4976296;28;20065;-88
2021/01/08 06:35:17;;;;;;;23.13;14.35;;;-0.40;99.90;;;;;;4976037;28;20026;-88
2021/01/08 06:37:43;;;;;;;27.17;15.18;;;-0.40;99.90;;;;;;4975955;28;20030;-88
2021/01/08 06:40:11;;;;;;;29.85;14.30;;;-0.40;99.90;;;;;;4975828;28;20030;-87
2021/01/08 06:42:46;;;;;;;26.25;14.80;;;-0.40;99.90;;;;;;4975917;28;20061;-87
2021/01/08 06:45:17;;;;;;;28.23;16.08;;;-0.40;99.90;;;;;;4975422;28;20018;-87
2021/01/08 06:47:45;;;;;;;26.27;14.23;;;-0.40;99.90;;;;;;4975546;28;20034;-87
2021/01/08 06:50:17;;;;;;;29.55;15.50;;;-0.40;99.90;;;;;;4976068;28;20419;-87
2021/01/08 06:52:44;;;;;;;;;;;-0.40;99.90;;;;;;4976769;28;20038;-86
2021/01/08 06:55:20;;;;;;;24.83;13.75;;;-0.40;99.90;;;;;;4981134;28;19905;-87
2021/01/08 06:57:52;;;;;;;25.45;13.35;;;-0.30;99.90;;;;;;4998691;28;20032;-88
2021/01/08 07:00:21;;;;;;;27.88;15.02;;;-0.20;99.90;;;;;;4976048;28;20574;-87
2021/01/08 07:02:51;;;;;;;27.25;15.18;;;-0.20;99.90;;;;;;4975848;28;20030;-87
2021/01/08 07:05:18;;;;;;;29.17;15.88;;;-0.20;99.90;;;;;;4991861;28;20023;-87
2021/01/08 07:07:44;;;;;;;26.17;14.73;;;-0.10;99.90;;;;;;4976242;28;20027;-87
2021/01/08 07:10:15;;;;;;;30.15;15.27;;;-0.20;99.90;;;;;;4975781;28;20057;-88
2021/01/08 07:12:42;;;;;;;26.05;14.98;;;-0.20;99.90;;;;;;4975813;28;20451;-87
2021/01/08 07:15:09;;;;;;;24.95;13.75;;;-0.10;99.90;;;;;;4974208;28;20032;-87
2021/01/08 07:17:35;;;;;;;27.27;13.68;;;0.00;99.90;;;;;;4976764;28;20121;-87
2021/01/08 07:20:03;;;;;;;25.88;15.32;;;-0.10;99.90;;;;;;4983222;28;20034;-87
2021/01/08 07:22:40;;;;;;;28.05;16.13;;;-0.20;99.90;;;;;;4975320;28;20034;-87
2021/01/08 07:25:13;;;;;;;28.70;16.13;;;-0.30;99.90;;;;;;4975392;28;20045;-87
2021/01/08 07:27:42;;;;;;;31.75;17.48;;;-0.40;99.90;;;;;;4991610;28;20076;-88
2021/01/08 07:30:08;;;;;;;32.50;17.65;;;-0.40;99.90;;;;;;4975480;28;20038;-88
2021/01/08 07:32:51;;;;;;;32.75;18.40;;;-0.50;99.90;;;;;;4975567;28;20027;-87
2021/01/08 07:35:29;;;;;;;32.42;18.35;;;-0.60;99.90;;;;;;4975148;28;20035;-88
2021/01/08 07:37:57;;;;;;;28.80;16.70;;;-0.60;99.90;;;;;;4991347;28;20034;-87
2021/01/08 07:40:26;;;;;;;33.38;19.08;;;-0.70;99.90;;;;;;4974902;28;20031;-87
2021/01/08 07:42:56;;;;;;;29.88;17.63;;;-0.80;99.90;;;;;;4975769;28;20048;-89
2021/01/08 07:45:22;;;;;;;34.10;17.63;;;-0.80;99.90;;;;;;4974817;28;20041;-89
2021/01/08 07:47:48;;;;;;;35.50;20.15;;;-0.90;99.90;;;;;;4975017;28;20031;-89
2021/01/08 07:50:16;;;;;;;42.05;19.45;;;-0.90;99.90;;;;;;4974675;28;20165;-89
2021/01/08 07:52:44;;;;;;;31.52;17.90;;;-0.80;99.90;;;;;;5002647;23;20082;-76
2021/01/08 07:55:39;;;;;;;34.83;17.90;;;-0.80;99.90;;;;;;4989631;28;20033;-76
2021/01/08 07:58:05;;;;;;;32.80;17.90;;;-0.70;99.90;;;;;;4989828;28;20026;-76
2021/01/08 08:00:32;;;;;;;35.97;18.23;;;-0.60;99.90;;;;;;4994508;28;20496;-76
2021/01/08 08:03:00;;;;;;;40.35;19.63;;;-0.40;99.90;;;;;;4994850;28;20109;-76
2021/01/08 08:05:27;;;;;;;33.58;19.88;;;-0.40;99.90;;;;;;4977472;28;20389;-76
2021/01/08 08:07:56;;;;;;;44.75;20.70;;;-0.40;99.90;;;;;;4994010;28;20489;-76
2021/01/08 08:10:23;;;;;;;44.33;22.00;;;-0.50;99.90;;;;;;4993640;28;20766;-74
2021/01/08 08:12:51;;;;;;;44.72;23.73;;;-0.50;99.90;;;;;;4994027;28;20034;-74
2021/01/08 08:15:17;;;;;;;42.30;22.63;;;-0.60;99.90;;;;;;4995135;28;20537;-74
2021/01/08 08:17:46;;;;;;;51.15;22.90;;;-0.60;99.90;;;;;;4977908;28;20026;-73
2021/01/08 08:20:23;;;;;;;37.85;20.80;;;-0.60;99.90;;;;;;4994488;28;20044;-73
2021/01/08 08:22:50;;;;;;;40.85;22.23;;;-0.60;99.90;;;;;;4994352;28;20208;-74
2021/01/08 08:25:30;;;;;;;38.20;20.13;;;-0.70;99.90;;;;;;4995242;28;20439;-73
2021/01/08 08:27:58;;;;;;;35.90;20.65;;;-0.60;99.90;;;;;;4993838;28;20030;-73
2021/01/08 08:30:25;;;;;;;35.50;16.88;;;-0.70;99.90;;;;;;4993716;28;20022;-73
2021/01/08 08:32:52;;;;;;;41.65;20.35;;;-0.80;99.90;;;;;;4994889;28;20545;-73
2021/01/08 08:35:18;;;;;;;32.38;17.58;;;-0.70;99.90;;;;;;4977464;28;20433;-73
2021/01/08 08:37:50;;;;;;;35.90;17.10;;;-0.70;99.90;;;;;;4993705;28;20054;-73
2021/01/08 08:40:16;;;;;;;34.55;19.35;;;-0.70;99.90;;;;;;4993784;28;20036;-73
2021/01/08 08:42:47;;;;;;;34.15;18.33;;;-0.60;99.90;;;;;;4994477;28;20041;-73
2021/01/08 08:45:21;;;;;;;30.60;16.15;;;-0.50;99.90;;;;;;4993460;28;20027;-73
2021/01/08 08:47:49;;;;;;;30.67;16.80;;;-0.60;99.90;;;;;;4994558;28;20035;-73
2021/01/08 08:50:16;;;;;;;32.53;17.67;;;-0.70;99.90;;;;;;4993495;28;20018;-76
2021/01/08 08:52:42;;;;;;;27.83;15.40;;;-0.80;99.90;;;;;;4997829;28;20385;-74
2021/01/08 08:55:09;;;;;;;32.88;17.73;;;-0.70;99.90;;;;;;5012937;28;20087;-74
2021/01/08 08:57:35;;;;;;;33.80;18.27;;;-0.70;99.90;;;;;;5014110;28;20025;-74
2021/01/08 09:00:00;;;;;;;28.42;16.27;;;-0.60;99.90;;;;;;5013792;28;20033;-74
2021/01/08 09:02:28;;;;;;;30.25;17.35;;;-0.70;99.90;;;;;;5013942;28;20382;-74
2021/01/08 09:04:58;;;;;;;35.58;17.83;;;-0.60;99.90;;;;;;5012290;28;20033;-74
2021/01/08 09:07:43;;;;;;;36.05;18.90;;;-0.60;99.90;;;;;;5013407;28;20049;-74
2021/01/08 09:10:15;;;;;;;29.20;17.00;;;-0.60;99.90;;;;;;5011660;28;20022;-74
2021/01/08 09:13:01;;;;;;;21.60;14.07;;;-0.60;99.90;;;;;;5012088;28;20401;-74
2021/01/08 09:15:33;;;;;;;29.75;16.55;;;-0.70;99.90;;;;;;5013054;28;20073;-73
2021/01/08 09:18:35;;;;;;;33.97;18.27;;;-0.70;99.90;;;;;;5013556;28;20029;-73
2021/01/08 09:21:23;;;;;;;25.83;14.68;;;-0.60;99.90;;;;;;5013053;28;20034;-74
2021/01/08 09:23:53;;;;;;;23.73;12.73;;;-0.70;99.90;;;;;;4998897;28;20470;-73
2021/01/08 09:26:20;;;;;;;21.60;12.68;;;-0.70;99.90;;;;;;4993588;28;20021;-74
2021/01/08 09:28:52;;;;;;;19.75;11.75;;;-0.60;99.90;;;;;;4994127;28;20018;-74
2021/01/08 09:31:18;;;;;;;16.30;10.50;;;-0.60;99.90;;;;;;4993078;28;20030;-74
2021/01/08 09:33:57;;;;;;;20.48;10.95;;;-0.70;99.90;;;;;;4992332;28;20037;-74
2021/01/08 09:36:32;;;;;;;17.98;11.10;;;-0.70;99.90;;;;;;4992519;28;20041;-74
2021/01/08 09:39:00;;;;;;;15.48;10.18;;;-0.70;99.90;;;;;;4992531;28;20026;-74
2021/01/08 09:41:26;;;;;;;18.23;11.27;;;-0.60;99.90;;;;;;5009557;28;20026;-74
2021/01/08 09:44:03;;;;;;;17.08;10.48;;;-0.60;99.90;;;;;;5013101;28;20022;-74
2021/01/08 09:46:29;;;;;;;16.38;9.40;;;-0.50;99.90;;;;;;5011738;28;20029;-74
2021/01/08 09:49:04;;;;;;;17.17;10.02;;;-0.50;99.90;;;;;;5013204;28;20075;-74
2021/01/08 09:51:30;;;;;;;17.92;9.57;;;-0.50;99.90;;;;;;5011909;28;20049;-74
2021/01/08 09:53:57;;;;;;;17.13;11.20;;;-0.50;99.90;;;;;;5012795;28;20152;-74
2021/01/08 09:56:23;;;;;;;20.25;11.55;;;-0.40;99.90;;;;;;5011633;28;20041;-74
2021/01/08 09:59:14;;;;;;;18.08;10.05;;;-0.40;99.90;;;;;;5011722;28;20022;-75
2021/01/08 10:04:33;;;;;;;16.10;10.02;;;-0.20;99.90;;;;;;5011504;28;20121;-75
2021/01/08 10:07:06;;;;;;;14.52;8.77;;;-0.10;99.90;;;;;;5012848;28;20069;-74
2021/01/08 10:09:45;;;;;;;18.35;10.30;;;-0.10;99.90;;;;;;5013029;28;20385;-75
2021/01/08 10:12:11;;;;;;;17.73;8.80;;;-0.20;99.90;;;;;;5011299;28;20442;-75
2021/01/08 10:14:37;;;;;;;17.30;10.13;;;-0.20;99.90;;;;;;5011040;28;20390;-75
2021/01/08 10:17:11;;;;;;;13.02;8.13;;;-0.10;99.90;;;;;;5011393;28;20029;-75
2021/01/08 10:19:39;;;;;;;14.98;8.95;;;-0.20;99.90;;;;;;4994043;28;20106;-75
2021/01/08 10:22:04;;;;;;;20.05;9.95;;;-0.10;99.90;;;;;;5012161;28;20474;-75
2021/01/08 10:24:30;;;;;;;18.65;9.30;;;0.00;99.90;;;;;;5012603;28;20033;-75
2021/01/08 10:26:56;;;;;;;15.00;9.15;;;0.10;99.90;;;;;;5011277;28;20057;-75
2021/01/08 10:29:33;;;;;;;12.88;8.18;;;0.10;99.90;;;;;;5012573;28;20516;-75
2021/01/08 10:32:17;;;;;;;14.13;8.27;;;0.10;99.90;;;;;;4994700;28;20434;-75
2021/01/08 10:34:44;;;;;;;16.77;8.95;;;0.00;99.90;;;;;;5009802;28;20029;-75
2021/01/08 10:37:18;;;;;;;14.38;9.38;;;0.10;99.90;;;;;;5010889;28;20037;-74
2021/01/08 10:39:47;;;;;;;15.85;8.38;;;0.10;99.80;;;;;;5011462;28;20032;-75
2021/01/08 10:42:15;;;;;;;12.35;7.68;;;0.10;99.10;;;;;;5011717;28;20026;-75
2021/01/08 10:44:41;;;;;;;13.50;7.70;;;0.20;97.30;;;;;;5007975;28;20436;-75
2021/01/08 10:47:07;;;;;;;10.40;6.43;;;0.30;95.40;;;;;;5010603;28;20018;-75
2021/01/08 10:49:33;;;;;;;13.18;7.72;;;0.30;94.50;;;;;;5010943;28;20474;-75
2021/01/08 10:51:59;;;;;;;12.20;6.95;;;0.40;93.60;;;;;;5011370;28;20029;-75
2021/01/08 10:54:25;;;;;;;12.73;6.70;;;0.40;93.70;;;;;;5011069;28;20042;-75
2021/01/08 10:56:51;;;;;;;11.95;7.50;;;0.50;93.30;;;;;;5010233;28;20025;-75
2021/01/08 10:59:16;;;;;;;13.73;6.78;;;0.60;93.10;;;;;;5010106;28;20030;-75
2021/01/08 11:01:43;;;;;;;11.32;6.93;;;0.70;92.80;;;;;;5010943;28;20096;-75
2021/01/08 11:04:09;;;;;;;12.52;6.82;;;0.50;92.50;;;;;;5011034;28;20029;-75
2021/01/08 11:06:38;;;;;;;12.43;7.47;;;0.50;92.80;;;;;;5009550;28;20033;-74
2021/01/08 11:09:05;;;;;;;12.10;6.93;;;0.60;93.40;;;;;;4993582;28;20120;-75
2021/01/08 11:11:31;;;;;;;11.02;7.07;;;0.60;93.20;;;;;;5009755;28;20056;-75
2021/01/08 11:13:57;;;;;;;13.23;8.18;;;0.60;93.50;;;;;;5010994;28;20437;-75
2021/01/08 11:16:23;;;;;;;15.25;8.73;;;0.70;93.00;;;;;;5011017;28;20054;-75
2021/01/08 11:18:48;;;;;;;11.88;7.53;;;0.70;93.10;;;;;;5011854;28;20438;-74
2021/01/08 11:21:21;;;;;;;17.02;8.57;;;0.70;92.50;;;;;;5010275;28;20025;-75
2021/01/08 11:23:48;;;;;;;13.48;8.88;;;0.80;92.40;;;;;;4993338;28;20485;-75
2021/01/08 11:26:24;;;;;;;18.20;9.10;;;0.90;92.50;;;;;;4993325;28;20030;-75
2021/01/08 11:28:50;;;;;;;13.13;7.63;;;0.90;92.10;;;;;;5009840;28;20033;-75
2021/01/08 11:31:17;;;;;;;14.40;8.73;;;0.90;91.90;;;;;;5009499;28;20026;-75
2021/01/08 11:33:44;;;;;;;12.70;7.50;;;1.10;93.00;;;;;;5010245;28;20052;-75
2021/01/08 11:36:10;;;;;;;16.50;8.15;;;1.30;91.70;;;;;;5009831;28;20312;-74
2021/01/08 11:38:36;;;;;;;13.52;8.25;;;1.50;91.00;;;;;;5010666;28;20029;-75
2021/01/08 11:41:02;;;;;;;13.70;9.15;;;1.80;90.80;;;;;;5010521;28;20014;-74
2021/01/08 11:43:27;;;;;;;19.00;10.27;;;2.10;90.30;;;;;;5009413;28;20026;-74
2021/01/08 11:45:53;;;;;;;20.25;9.93;;;2.20;87.90;;;;;;5009577;28;20028;-75
2021/01/08 11:48:19;;;;;;;12.20;8.15;;;2.20;86.60;;;;;;5009299;28;20018;-74
2021/01/08 11:50:44;;;;;;;11.02;7.05;;;2.40;85.50;;;;;;4993362;28;20026;-75
2021/01/08 11:53:10;;;;;;;12.73;7.72;;;2.50;86.90;;;;;;5009508;28;20041;-75
2021/01/08 11:55:37;;;;;;;10.20;7.40;;;2.80;84.20;;;;;;5009624;28;20440;-75
2021/01/08 11:58:02;;;;;;;11.80;8.15;;;2.90;82.50;;;;;;5011585;28;20061;-75
2021/01/08 12:00:28;;;;;;;13.15;8.60;;;3.00;81.10;;;;;;5010880;28;20058;-75
2021/01/08 12:02:54;;;;;;;14.55;8.98;;;3.00;82.40;;;;;;5010001;28;20500;-74
2021/01/08 12:05:19;;;;;;;14.63;7.90;;;3.30;81.20;;;;;;5010688;28;20097;-75
2021/01/08 12:07:45;;;;;;;15.07;7.53;;;3.00;78.70;;;;;;5010942;28;20018;-76
2021/01/08 12:10:11;;;;;;;12.02;7.50;;;3.30;79.10;;;;;;4993155;28;20025;-74
2021/01/08 12:12:37;;;;;;;14.73;8.13;;;3.40;76.80;;;;;;5010648;28;20033;-74
2021/01/08 12:15:03;;;;;;;13.43;7.18;;;2.80;77.90;;;;;;5007403;28;20057;-74
2021/01/08 12:17:29;;;;;;;12.70;8.27;;;2.80;78.90;;;;;;5010774;28;20523;-74
2021/01/08 12:19:55;;;;;;;11.73;7.82;;;2.80;78.90;;;;;;5008936;28;20118;-74
2021/01/08 12:22:21;;;;;;;21.70;12.07;;;2.80;79.10;;;;;;5009176;28;20493;-74
2021/01/08 12:24:47;;;;;;;23.23;13.27;;;2.90;79.50;;;;;;5010226;28;20034;-75
2021/01/08 12:27:12;;;;;;;15.77;9.57;;;2.80;79.80;;;;;;5009139;28;20409;-75
2021/01/08 12:29:38;;;;;;;22.00;12.57;;;2.70;79.30;;;;;;5009259;28;20036;-74
2021/01/08 12:32:05;;;;;;;20.15;11.02;;;2.60;79.60;;;;;;5008916;28;20026;-74
2021/01/08 12:34:30;;;;;;;13.35;7.97;;;2.20;80.90;;;;;;5010623;28;20102;-74
2021/01/08 12:36:56;;;;;;;14.57;8.77;;;2.00;80.90;;;;;;5010039;28;20125;-74
2021/01/08 12:39:23;;;;;;;16.88;8.45;;;1.70;81.90;;;;;;5010121;28;20137;-74
2021/01/08 12:41:49;;;;;;;16.23;8.32;;;1.70;81.90;;;;;;5010123;28;20440;-74
2021/01/08 12:44:15;;;;;;;18.10;8.85;;;1.50;82.70;;;;;;5010264;28;20026;-74